CCA4580 ZHHH-ZHCC
Flight info
| Callsign | CCA4580 |
|---|---|
| Flight time | 0h 45m |
| Altitude | 33100 |
| Route | BENBI1S BENBI W56 IGMIG IGM6U |
| Aircraft | A346/H-SDE2E3FGHIJ3J4J5M1RWXY/LB1D1 |
Departure
| Time | 2026-05-01 12:38 |
|---|---|
| Airport | Wuhan Tianhe International Airport (ZHHH) |
Arrival
| Time | 2026-05-01 13:23 |
|---|---|
| Airport | Zhengzhou Xinzheng International Airport (ZHCC) |
| Time | Latitude | Longitude | Altitude | Speed | Heading |
|---|---|---|---|---|---|
| 2026-05-01 12:01 | 30.77338 | 114.21884 | 127 ft | 0 kts | 225° |
| 2026-05-01 12:26 | 30.77346 | 114.21893 | 127 ft | 2 kts | 220° |
| 2026-05-01 12:26 | 30.77374 | 114.21910 | 127 ft | 2 kts | 194° |
| 2026-05-01 12:26 | 30.77389 | 114.21913 | 127 ft | 2 kts | 182° |
| 2026-05-01 12:27 | 30.77405 | 114.21913 | 127 ft | 2 kts | 171° |
| 2026-05-01 12:27 | 30.77434 | 114.21902 | 127 ft | 2 kts | 149° |
| 2026-05-01 12:28 | 30.77454 | 114.21883 | 127 ft | 0 kts | 131° |
| 2026-05-01 12:28 | 30.77455 | 114.21881 | 127 ft | 0 kts | 130° |
| 2026-05-01 12:31 | 30.77452 | 114.21886 | 127 ft | 2 kts | 130° |
| 2026-05-01 12:31 | 30.77434 | 114.21909 | 127 ft | 5 kts | 131° |
| 2026-05-01 12:31 | 30.77402 | 114.21952 | 127 ft | 8 kts | 131° |
| 2026-05-01 12:31 | 30.77355 | 114.22012 | 127 ft | 11 kts | 132° |
| 2026-05-01 12:32 | 30.77296 | 114.22089 | 127 ft | 13 kts | 131° |
| 2026-05-01 12:32 | 30.77161 | 114.22220 | 127 ft | 11 kts | 198° |
| 2026-05-01 12:32 | 30.77090 | 114.22162 | 127 ft | 13 kts | 216° |
| 2026-05-01 12:33 | 30.77014 | 114.22087 | 127 ft | 15 kts | 221° |
| 2026-05-01 12:33 | 30.76929 | 114.22001 | 127 ft | 16 kts | 221° |
| 2026-05-01 12:33 | 30.76838 | 114.21908 | 127 ft | 18 kts | 221° |
| 2026-05-01 12:33 | 30.76740 | 114.21808 | 127 ft | 19 kts | 221° |
| 2026-05-01 12:34 | 30.76650 | 114.21716 | 127 ft | 8 kts | 221° |
| 2026-05-01 12:34 | 30.76603 | 114.21703 | 127 ft | 8 kts | 164° |
| 2026-05-01 12:34 | 30.76547 | 114.21755 | 127 ft | 11 kts | 133° |
| 2026-05-01 12:34 | 30.76485 | 114.21834 | 127 ft | 13 kts | 131° |
| 2026-05-01 12:35 | 30.76427 | 114.21910 | 127 ft | 9 kts | 131° |
| 2026-05-01 12:35 | 30.76365 | 114.21931 | 127 ft | 10 kts | 205° |
| 2026-05-01 12:35 | 30.76297 | 114.21870 | 127 ft | 13 kts | 221° |
| 2026-05-01 12:35 | 30.76223 | 114.21793 | 127 ft | 15 kts | 221° |
| 2026-05-01 12:36 | 30.76137 | 114.21706 | 127 ft | 16 kts | 221° |
| 2026-05-01 12:36 | 30.76049 | 114.21616 | 127 ft | 15 kts | 221° |
| 2026-05-01 12:36 | 30.75977 | 114.21543 | 127 ft | 12 kts | 221° |
| 2026-05-01 12:36 | 30.75946 | 114.21523 | 127 ft | 5 kts | 178° |
| 2026-05-01 12:37 | 30.75901 | 114.21554 | 127 ft | 9 kts | 135° |
| 2026-05-01 12:37 | 30.75856 | 114.21616 | 127 ft | 8 kts | 129° |
| 2026-05-01 12:37 | 30.75850 | 114.21663 | 127 ft | 7 kts | 61° |
| 2026-05-01 12:37 | 30.75876 | 114.21697 | 127 ft | 9 kts | 41° |
| 2026-05-01 12:38 | 30.77884 | 114.23721 | 515 ft | 183 kts | 42° |
| 2026-05-01 12:38 | 30.78886 | 114.24654 | 1214 ft | 187 kts | 27° |
| 2026-05-01 12:39 | 30.80142 | 114.25039 | 2002 ft | 191 kts | 9° |
| 2026-05-01 12:39 | 30.81443 | 114.25176 | 2770 ft | 193 kts | 6° |
| 2026-05-01 12:39 | 30.82790 | 114.25301 | 3439 ft | 201 kts | 6° |
| 2026-05-01 12:39 | 30.84242 | 114.25458 | 3945 ft | 218 kts | 7° |
| 2026-05-01 12:40 | 30.85806 | 114.25655 | 4406 ft | 234 kts | 7° |
| 2026-05-01 12:40 | 30.87491 | 114.25886 | 4791 ft | 253 kts | 8° |
| 2026-05-01 12:40 | 30.89293 | 114.26141 | 5250 ft | 269 kts | 8° |
| 2026-05-01 12:40 | 30.91163 | 114.26417 | 5996 ft | 273 kts | 8° |
| 2026-05-01 12:41 | 30.93045 | 114.26699 | 6810 ft | 275 kts | 8° |
| 2026-05-01 12:41 | 30.94949 | 114.26983 | 7583 ft | 278 kts | 7° |
| 2026-05-01 12:41 | 30.97127 | 114.27312 | 8447 ft | 281 kts | 7° |
| 2026-05-01 12:41 | 30.99130 | 114.27615 | 9218 ft | 285 kts | 7° |
| 2026-05-01 12:42 | 31.01045 | 114.27904 | 9923 ft | 289 kts | 6° |
| 2026-05-01 12:42 | 31.03089 | 114.28213 | 10514 ft | 300 kts | 6° |
| 2026-05-01 12:42 | 31.05221 | 114.28532 | 10917 ft | 318 kts | 6° |
| 2026-05-01 12:42 | 31.07500 | 114.28874 | 11309 ft | 337 kts | 6° |
| 2026-05-01 12:43 | 31.09859 | 114.29230 | 11687 ft | 355 kts | 6° |
| 2026-05-01 12:43 | 31.12402 | 114.29616 | 12053 ft | 374 kts | 6° |
| 2026-05-01 12:43 | 31.15032 | 114.30016 | 12506 ft | 388 kts | 6° |
| 2026-05-01 12:43 | 31.17760 | 114.30432 | 13267 ft | 394 kts | 6° |
| 2026-05-01 12:44 | 31.20444 | 114.30842 | 14068 ft | 397 kts | 6° |
| 2026-05-01 12:44 | 31.23193 | 114.31261 | 14819 ft | 401 kts | 6° |
| 2026-05-01 12:44 | 31.28922 | 114.32131 | 16283 ft | 411 kts | 6° |
| 2026-05-01 12:45 | 31.34645 | 114.32978 | 17661 ft | 419 kts | 4° |
| 2026-05-01 12:45 | 31.37575 | 114.33223 | 18328 ft | 422 kts | 0° |
| 2026-05-01 12:45 | 31.40554 | 114.33334 | 18985 ft | 426 kts | 359° |
| 2026-05-01 12:46 | 31.43527 | 114.33418 | 19618 ft | 430 kts | 359° |
| 2026-05-01 12:46 | 31.46577 | 114.33501 | 20244 ft | 434 kts | 359° |
| 2026-05-01 12:46 | 31.49653 | 114.33585 | 20861 ft | 438 kts | 359° |
| 2026-05-01 12:46 | 31.52708 | 114.33672 | 21450 ft | 442 kts | 359° |
| 2026-05-01 12:47 | 31.55819 | 114.33762 | 22032 ft | 446 kts | 359° |
| 2026-05-01 12:47 | 31.58956 | 114.33854 | 22607 ft | 449 kts | 359° |
| 2026-05-01 12:47 | 31.62125 | 114.33948 | 23166 ft | 453 kts | 359° |
| 2026-05-01 12:47 | 31.65317 | 114.34043 | 23709 ft | 457 kts | 358° |
| 2026-05-01 12:48 | 31.68560 | 114.34139 | 24239 ft | 461 kts | 358° |
| 2026-05-01 12:48 | 31.71771 | 114.34234 | 24750 ft | 464 kts | 358° |
| 2026-05-01 12:48 | 31.75060 | 114.34332 | 25260 ft | 468 kts | 358° |
| 2026-05-01 12:48 | 31.78335 | 114.34430 | 25770 ft | 471 kts | 358° |
| 2026-05-01 12:49 | 31.81621 | 114.34528 | 26242 ft | 474 kts | 358° |
| 2026-05-01 12:49 | 31.84950 | 114.34628 | 26461 ft | 477 kts | 358° |
| 2026-05-01 12:49 | 31.88303 | 114.34729 | 26463 ft | 477 kts | 358° |
| 2026-05-01 12:49 | 31.91651 | 114.34807 | 26462 ft | 475 kts | 356° |
| 2026-05-01 12:50 | 31.94970 | 114.34598 | 26464 ft | 474 kts | 352° |
| 2026-05-01 12:50 | 31.98251 | 114.34248 | 26465 ft | 473 kts | 351° |
| 2026-05-01 12:50 | 32.01554 | 114.33871 | 26464 ft | 473 kts | 351° |
| 2026-05-01 12:50 | 32.04802 | 114.33509 | 26465 ft | 473 kts | 351° |
| 2026-05-01 12:51 | 32.08122 | 114.33155 | 26465 ft | 473 kts | 352° |
| 2026-05-01 12:51 | 32.11419 | 114.32816 | 26463 ft | 473 kts | 352° |
| 2026-05-01 12:51 | 32.17977 | 114.32158 | 26464 ft | 473 kts | 352° |
| 2026-05-01 12:52 | 32.21269 | 114.31832 | 26465 ft | 473 kts | 352° |
| 2026-05-01 12:52 | 32.27933 | 114.31176 | 26463 ft | 473 kts | 352° |
| 2026-05-01 12:52 | 32.31248 | 114.30850 | 26465 ft | 473 kts | 352° |
| 2026-05-01 12:53 | 32.37889 | 114.30197 | 26464 ft | 474 kts | 352° |
| 2026-05-01 12:53 | 32.41210 | 114.29870 | 26464 ft | 473 kts | 352° |
| 2026-05-01 12:53 | 32.44591 | 114.29536 | 26465 ft | 473 kts | 352° |
| 2026-05-01 12:54 | 32.47885 | 114.29211 | 26465 ft | 473 kts | 352° |
| 2026-05-01 12:54 | 32.54486 | 114.28558 | 26464 ft | 473 kts | 352° |
| 2026-05-01 12:55 | 32.64457 | 114.27573 | 26463 ft | 473 kts | 352° |
| 2026-05-01 12:55 | 32.67732 | 114.27249 | 26465 ft | 473 kts | 352° |
| 2026-05-01 12:55 | 32.71054 | 114.26920 | 26468 ft | 473 kts | 352° |
| 2026-05-01 12:56 | 32.74316 | 114.26598 | 26473 ft | 473 kts | 352° |
| 2026-05-01 12:56 | 32.77588 | 114.26273 | 26481 ft | 473 kts | 352° |
| 2026-05-01 12:56 | 32.80861 | 114.25948 | 26489 ft | 472 kts | 352° |
| 2026-05-01 12:56 | 32.84147 | 114.25620 | 26497 ft | 472 kts | 352° |
| 2026-05-01 12:57 | 32.87432 | 114.25291 | 26504 ft | 472 kts | 352° |
| 2026-05-01 12:57 | 32.94008 | 114.24638 | 26513 ft | 472 kts | 352° |
| 2026-05-01 12:57 | 32.97292 | 114.24310 | 26514 ft | 472 kts | 352° |
| 2026-05-01 12:58 | 33.00568 | 114.23986 | 26516 ft | 471 kts | 351° |
| 2026-05-01 12:58 | 33.03851 | 114.23660 | 26521 ft | 468 kts | 351° |
| 2026-05-01 12:58 | 33.07076 | 114.23341 | 26521 ft | 464 kts | 351° |
| 2026-05-01 12:59 | 33.13523 | 114.22696 | 26342 ft | 457 kts | 351° |
| 2026-05-01 12:59 | 33.16684 | 114.22376 | 26093 ft | 453 kts | 351° |
| 2026-05-01 12:59 | 33.22908 | 114.21747 | 25596 ft | 448 kts | 351° |
| 2026-05-01 13:00 | 33.29142 | 114.21118 | 25092 ft | 444 kts | 351° |
| 2026-05-01 13:00 | 33.32229 | 114.20805 | 24841 ft | 442 kts | 351° |
| 2026-05-01 13:01 | 33.38260 | 114.19739 | 24339 ft | 435 kts | 345° |
| 2026-05-01 13:01 | 33.41223 | 114.18922 | 24080 ft | 433 kts | 343° |
| 2026-05-01 13:01 | 33.47026 | 114.17129 | 23491 ft | 428 kts | 342° |
| 2026-05-01 13:02 | 33.49919 | 114.16222 | 23096 ft | 426 kts | 342° |
| 2026-05-01 13:07 | 34.05753 | 113.98724 | 14150 ft | 367 kts | 342° |
| 2026-05-01 13:07 | 34.08007 | 113.97279 | 13635 ft | 368 kts | 321° |
| 2026-05-01 13:07 | 34.09892 | 113.95164 | 13140 ft | 368 kts | 316° |
| 2026-05-01 13:08 | 34.11779 | 113.92905 | 12653 ft | 367 kts | 316° |
| 2026-05-01 13:08 | 34.13613 | 113.90736 | 12203 ft | 365 kts | 316° |
| 2026-05-01 13:08 | 34.15425 | 113.88631 | 11770 ft | 363 kts | 317° |
| 2026-05-01 13:08 | 34.17262 | 113.86528 | 11350 ft | 360 kts | 317° |
| 2026-05-01 13:09 | 34.19114 | 113.84425 | 10937 ft | 357 kts | 317° |
| 2026-05-01 13:09 | 34.20904 | 113.82400 | 10615 ft | 351 kts | 317° |
| 2026-05-01 13:09 | 34.22672 | 113.80406 | 10386 ft | 341 kts | 317° |
| 2026-05-01 13:09 | 34.24399 | 113.78460 | 10328 ft | 327 kts | 317° |
| 2026-05-01 13:10 | 34.26031 | 113.76620 | 10279 ft | 313 kts | 317° |
| 2026-05-01 13:10 | 34.27577 | 113.74881 | 10236 ft | 299 kts | 317° |
| 2026-05-01 13:10 | 34.29073 | 113.73196 | 10197 ft | 285 kts | 317° |
| 2026-05-01 13:10 | 34.30504 | 113.71584 | 10162 ft | 274 kts | 317° |
| 2026-05-01 13:11 | 34.31892 | 113.70019 | 10131 ft | 268 kts | 317° |
| 2026-05-01 13:11 | 34.33260 | 113.68478 | 9879 ft | 269 kts | 317° |
| 2026-05-01 13:11 | 34.34640 | 113.66921 | 9529 ft | 270 kts | 317° |
| 2026-05-01 13:11 | 34.36024 | 113.65360 | 9213 ft | 269 kts | 317° |
| 2026-05-01 13:12 | 34.37400 | 113.63808 | 8911 ft | 268 kts | 317° |
| 2026-05-01 13:12 | 34.38763 | 113.62267 | 8616 ft | 267 kts | 317° |
| 2026-05-01 13:12 | 34.40108 | 113.60747 | 8326 ft | 265 kts | 317° |
| 2026-05-01 13:12 | 34.41468 | 113.59210 | 8093 ft | 262 kts | 317° |
| 2026-05-01 13:13 | 34.42796 | 113.57707 | 7879 ft | 256 kts | 317° |
| 2026-05-01 13:13 | 34.44088 | 113.56245 | 7629 ft | 252 kts | 317° |
| 2026-05-01 13:13 | 34.45364 | 113.54802 | 7384 ft | 248 kts | 316° |
| 2026-05-01 13:13 | 34.46625 | 113.53374 | 7145 ft | 244 kts | 316° |
| 2026-05-01 13:14 | 34.47860 | 113.51975 | 6910 ft | 240 kts | 316° |
| 2026-05-01 13:14 | 34.49084 | 113.50588 | 6679 ft | 237 kts | 316° |
| 2026-05-01 13:14 | 34.50274 | 113.49239 | 6454 ft | 233 kts | 316° |
| 2026-05-01 13:14 | 34.51447 | 113.47909 | 6216 ft | 225 kts | 316° |
| 2026-05-01 13:15 | 34.52603 | 113.46699 | 6081 ft | 209 kts | 327° |
| 2026-05-01 13:15 | 34.53927 | 113.46167 | 5976 ft | 197 kts | 355° |
| 2026-05-01 13:15 | 34.55274 | 113.46416 | 5724 ft | 196 kts | 17° |
| 2026-05-01 13:15 | 34.56547 | 113.47020 | 5488 ft | 195 kts | 22° |
| 2026-05-01 13:16 | 34.57795 | 113.47670 | 5259 ft | 195 kts | 22° |
| 2026-05-01 13:16 | 34.59049 | 113.48321 | 5035 ft | 195 kts | 22° |
| 2026-05-01 13:16 | 34.60305 | 113.48960 | 4813 ft | 194 kts | 22° |
| 2026-05-01 13:17 | 34.63793 | 113.51318 | 4119 ft | 194 kts | 57° |
| 2026-05-01 13:17 | 34.64143 | 113.52888 | 4050 ft | 194 kts | 91° |
| 2026-05-01 13:18 | 34.63485 | 113.56061 | 4052 ft | 193 kts | 111° |
| 2026-05-01 13:18 | 34.62992 | 113.57607 | 4048 ft | 193 kts | 113° |
| 2026-05-01 13:18 | 34.62480 | 113.59137 | 4046 ft | 193 kts | 114° |
| 2026-05-01 13:18 | 34.61971 | 113.60630 | 4046 ft | 193 kts | 114° |
| 2026-05-01 13:19 | 34.61447 | 113.62158 | 4045 ft | 193 kts | 114° |
| 2026-05-01 13:19 | 34.60924 | 113.63680 | 4007 ft | 193 kts | 114° |
| 2026-05-01 13:19 | 34.59885 | 113.66702 | 3519 ft | 191 kts | 114° |
| 2026-05-01 13:20 | 34.59370 | 113.68201 | 3259 ft | 187 kts | 114° |
| 2026-05-01 13:20 | 34.58890 | 113.69605 | 3002 ft | 175 kts | 114° |
| 2026-05-01 13:20 | 34.58435 | 113.70937 | 2765 ft | 166 kts | 114° |
| 2026-05-01 13:21 | 34.57551 | 113.73522 | 2352 ft | 164 kts | 114° |
| 2026-05-01 13:21 | 34.57117 | 113.74792 | 2144 ft | 163 kts | 114° |
| 2026-05-01 13:21 | 34.56677 | 113.76083 | 1926 ft | 163 kts | 114° |
| 2026-05-01 13:21 | 34.56247 | 113.77341 | 1708 ft | 162 kts | 114° |
| 2026-05-01 13:22 | 34.55811 | 113.78616 | 1484 ft | 161 kts | 114° |
| 2026-05-01 13:22 | 34.55379 | 113.79884 | 1264 ft | 161 kts | 114° |
| 2026-05-01 13:22 | 34.54950 | 113.81127 | 1054 ft | 160 kts | 115° |
| 2026-05-01 13:22 | 34.54510 | 113.82391 | 843 ft | 160 kts | 115° |
| 2026-05-01 13:23 | 34.54082 | 113.83633 | 620 ft | 158 kts | 114° |
| 2026-05-01 13:23 | 34.53685 | 113.84835 | 515 ft | 139 kts | 113° |
| 2026-05-01 13:23 | 34.53378 | 113.85723 | 514 ft | 85 kts | 112° |
| 2026-05-01 13:23 | 34.53228 | 113.86196 | 514 ft | 35 kts | 105° |
| 2026-05-01 13:24 | 34.53210 | 113.86389 | 514 ft | 21 kts | 89° |
| 2026-05-01 13:24 | 34.53220 | 113.86572 | 514 ft | 22 kts | 85° |
| 2026-05-01 13:24 | 34.53237 | 113.86716 | 514 ft | 12 kts | 55° |
| 2026-05-01 13:25 | 34.53414 | 113.86829 | 514 ft | 16 kts | 20° |
| 2026-05-01 13:25 | 34.53524 | 113.86879 | 514 ft | 17 kts | 20° |
| 2026-05-01 13:25 | 34.53634 | 113.86935 | 514 ft | 15 kts | 24° |
| 2026-05-01 13:25 | 34.53702 | 113.86967 | 514 ft | 8 kts | 4° |
| 2026-05-01 13:26 | 34.53753 | 113.86939 | 514 ft | 9 kts | 314° |
| 2026-05-01 13:26 | 34.53786 | 113.86861 | 514 ft | 11 kts | 295° |
| 2026-05-01 13:26 | 34.53816 | 113.86813 | 514 ft | 5 kts | 349° |
| 2026-05-01 13:26 | 34.53869 | 113.86822 | 514 ft | 9 kts | 17° |
| 2026-05-01 13:27 | 34.53905 | 113.86838 | 514 ft | 0 kts | 21° |